sensor_id;sensor_type;location;lat;lon;timestamp;temperature;humidity
35563;DHT22;21665;40.108;18.302;2023-04-24T00:43:39;13.10;99.90
35563;DHT22;21665;40.108;18.302;2023-04-24T00:46:06;13.10;99.90
35563;DHT22;21665;40.108;18.302;2023-04-24T00:48:33;13.10;99.90
35563;DHT22;21665;40.108;18.302;2023-04-24T00:51:00;13.10;99.90
35563;DHT22;21665;40.108;18.302;2023-04-24T00:53:27;13.20;99.90
35563;DHT22;21665;40.108;18.302;2023-04-24T00:55:54;13.20;99.90
35563;DHT22;21665;40.108;18.302;2023-04-24T00:58:21;13.30;99.90
35563;DHT22;21665;40.108;18.302;2023-04-24T01:00:49;13.30;99.90
35563;DHT22;21665;40.108;18.302;2023-04-24T01:03:24;13.30;99.90
35563;DHT22;21665;40.108;18.302;2023-04-24T01:05:53;13.30;99.90
35563;DHT22;21665;40.108;18.302;2023-04-24T01:08:26;13.30;99.90
35563;DHT22;21665;40.108;18.302;2023-04-24T01:10:53;13.40;99.90
35563;DHT22;21665;40.108;18.302;2023-04-24T01:13:20;13.40;99.90
35563;DHT22;21665;40.108;18.302;2023-04-24T01:15:47;13.50;99.90
35563;DHT22;21665;40.108;18.302;2023-04-24T01:18:14;13.50;99.90
35563;DHT22;21665;40.108;18.302;2023-04-24T01:20:43;13.60;99.90
35563;DHT22;21665;40.108;18.302;2023-04-24T01:23:11;13.70;99.90
35563;DHT22;21665;40.108;18.302;2023-04-24T01:25:37;13.80;99.90
35563;DHT22;21665;40.108;18.302;2023-04-24T01:28:04;13.90;99.90
35563;DHT22;21665;40.108;18.302;2023-04-24T01:30:31;13.90;99.90
35563;DHT22;21665;40.108;18.302;2023-04-24T01:32:59;14.00;99.90
35563;DHT22;21665;40.108;18.302;2023-04-24T01:35:26;14.00;99.90
35563;DHT22;21665;40.108;18.302;2023-04-24T01:37:53;14.00;99.90
35563;DHT22;21665;40.108;18.302;2023-04-24T01:40:19;14.10;99.90
35563;DHT22;21665;40.108;18.302;2023-04-24T01:42:46;14.20;99.90
35563;DHT22;21665;40.108;18.302;2023-04-24T01:45:13;14.20;99.90
35563;DHT22;21665;40.108;18.302;2023-04-24T01:47:39;14.20;99.90
35563;DHT22;21665;40.108;18.302;2023-04-24T01:50:07;14.30;99.90
35563;DHT22;21665;40.108;18.302;2023-04-24T01:52:33;14.30;99.90
35563;DHT22;21665;40.108;18.302;2023-04-24T01:55:05;14.30;99.90
35563;DHT22;21665;40.108;18.302;2023-04-24T01:57:33;14.20;99.90
35563;DHT22;21665;40.108;18.302;2023-04-24T02:00:00;14.30;99.90
35563;DHT22;21665;40.108;18.302;2023-04-24T02:02:29;14.30;99.90
35563;DHT22;21665;40.108;18.302;2023-04-24T02:04:57;14.30;99.90
35563;DHT22;21665;40.108;18.302;2023-04-24T02:07:24;14.30;99.90
35563;DHT22;21665;40.108;18.302;2023-04-24T02:09:50;14.30;99.90
35563;DHT22;21665;40.108;18.302;2023-04-24T02:12:17;14.30;99.90
35563;DHT22;21665;40.108;18.302;2023-04-24T02:14:44;14.30;99.90
35563;DHT22;21665;40.108;18.302;2023-04-24T02:17:11;14.30;99.90
35563;DHT22;21665;40.108;18.302;2023-04-24T02:19:39;14.30;99.90
35563;DHT22;21665;40.108;18.302;2023-04-24T02:22:05;14.30;99.90
35563;DHT22;21665;40.108;18.302;2023-04-24T02:24:34;14.30;99.90
35563;DHT22;21665;40.108;18.302;2023-04-24T02:27:01;14.30;99.90
35563;DHT22;21665;40.108;18.302;2023-04-24T02:29:29;14.40;99.90
35563;DHT22;21665;40.108;18.302;2023-04-24T02:31:57;14.30;99.90
35563;DHT22;21665;40.108;18.302;2023-04-24T02:34:23;14.30;99.90
35563;DHT22;21665;40.108;18.302;2023-04-24T02:36:50;14.30;99.90
35563;DHT22;21665;40.108;18.302;2023-04-24T02:39:17;14.30;99.90
35563;DHT22;21665;40.108;18.302;2023-04-24T02:41:45;14.30;99.90
35563;DHT22;21665;40.108;18.302;2023-04-24T02:44:11;14.30;99.90
35563;DHT22;21665;40.108;18.302;2023-04-24T02:46:39;14.40;99.90
35563;DHT22;21665;40.108;18.302;2023-04-24T02:49:07;14.30;99.90
35563;DHT22;21665;40.108;18.302;2023-04-24T02:51:33;14.30;99.90
35563;DHT22;21665;40.108;18.302;2023-04-24T02:54:00;14.40;99.90
35563;DHT22;21665;40.108;18.302;2023-04-24T02:56:26;14.30;99.90
35563;DHT22;21665;40.108;18.302;2023-04-24T02:58:54;14.40;99.90
35563;DHT22;21665;40.108;18.302;2023-04-24T03:01:21;14.40;99.90
35563;DHT22;21665;40.108;18.302;2023-04-24T03:03:48;14.30;99.90
35563;DHT22;21665;40.108;18.302;2023-04-24T03:06:15;14.40;99.90
35563;DHT22;21665;40.108;18.302;2023-04-24T03:08:42;14.40;99.90
35563;DHT22;21665;40.108;18.302;2023-04-24T03:11:11;14.40;99.90
35563;DHT22;21665;40.108;18.302;2023-04-24T03:13:37;14.40;99.90
35563;DHT22;21665;40.108;18.302;2023-04-24T03:16:04;14.40;99.90
35563;DHT22;21665;40.108;18.302;2023-04-24T03:18:31;14.40;99.90
35563;DHT22;21665;40.108;18.302;2023-04-24T03:20:58;14.40;99.90
35563;DHT22;21665;40.108;18.302;2023-04-24T03:23:26;14.40;99.90
35563;DHT22;21665;40.108;18.302;2023-04-24T03:25:52;14.50;99.90
35563;DHT22;21665;40.108;18.302;2023-04-24T03:28:19;14.50;99.90
35563;DHT22;21665;40.108;18.302;2023-04-24T03:31:04;14.50;99.90
35563;DHT22;21665;40.108;18.302;2023-04-24T03:33:34;14.40;99.90
35563;DHT22;21665;40.108;18.302;2023-04-24T03:36:02;14.50;99.90
35563;DHT22;21665;40.108;18.302;2023-04-24T03:38:36;14.50;99.90
35563;DHT22;21665;40.108;18.302;2023-04-24T03:41:30;14.50;99.90
35563;DHT22;21665;40.108;18.302;2023-04-24T03:44:09;14.50;99.90
35563;DHT22;21665;40.108;18.302;2023-04-24T03:46:36;14.60;99.90
35563;DHT22;21665;40.108;18.302;2023-04-24T03:49:03;14.60;99.90
35563;DHT22;21665;40.108;18.302;2023-04-24T03:51:34;14.60;99.90
35563;DHT22;21665;40.108;18.302;2023-04-24T03:54:09;14.60;99.90
35563;DHT22;21665;40.108;18.302;2023-04-24T03:56:39;14.60;99.90
35563;DHT22;21665;40.108;18.302;2023-04-24T03:59:06;14.60;99.90
35563;DHT22;21665;40.108;18.302;2023-04-24T04:01:37;14.70;99.90
35563;DHT22;21665;40.108;18.302;2023-04-24T04:04:13;14.70;99.90
35563;DHT22;21665;40.108;18.302;2023-04-24T04:06:43;14.70;99.90
35563;DHT22;21665;40.108;18.302;2023-04-24T04:09:10;14.70;99.90
35563;DHT22;21665;40.108;18.302;2023-04-24T04:11:37;14.70;99.90
35563;DHT22;21665;40.108;18.302;2023-04-24T04:14:04;14.80;99.90
35563;DHT22;21665;40.108;18.302;2023-04-24T04:16:33;14.80;99.90
35563;DHT22;21665;40.108;18.302;2023-04-24T04:19:03;14.90;99.90
35563;DHT22;21665;40.108;18.302;2023-04-24T04:21:30;14.90;99.90
35563;DHT22;21665;40.108;18.302;2023-04-24T04:24:08;15.00;99.90
35563;DHT22;21665;40.108;18.302;2023-04-24T04:26:43;15.10;99.90
35563;DHT22;21665;40.108;18.302;2023-04-24T04:29:20;15.10;99.90
35563;DHT22;21665;40.108;18.302;2023-04-24T04:31:51;15.10;99.90
35563;DHT22;21665;40.108;18.302;2023-04-24T04:34:18;15.30;99.90
35563;DHT22;21665;40.108;18.302;2023-04-24T04:36:46;15.30;99.90
35563;DHT22;21665;40.108;18.302;2023-04-24T04:39:36;15.40;99.90
35563;DHT22;21665;40.108;18.302;2023-04-24T04:42:06;15.50;99.90
35563;DHT22;21665;40.108;18.302;2023-04-24T04:44:40;15.70;99.90
35563;DHT22;21665;40.108;18.302;2023-04-24T04:47:12;15.70;99.90
35563;DHT22;21665;40.108;18.302;2023-04-24T04:49:40;15.70;99.90
35563;DHT22;21665;40.108;18.302;2023-04-24T04:52:15;15.90;99.90
35563;DHT22;21665;40.108;18.302;2023-04-24T04:54:44;16.10;99.90
35563;DHT22;21665;40.108;18.302;2023-04-24T04:57:13;16.10;99.90
35563;DHT22;21665;40.108;18.302;2023-04-24T04:59:39;16.20;99.90
35563;DHT22;21665;40.108;18.302;2023-04-24T05:02:13;16.10;99.90
35563;DHT22;21665;40.108;18.302;2023-04-24T05:04:40;16.20;99.90
35563;DHT22;21665;40.108;18.302;2023-04-24T05:07:06;16.20;99.90
35563;DHT22;21665;40.108;18.302;2023-04-24T05:09:37;16.40;99.90
35563;DHT22;21665;40.108;18.302;2023-04-24T05:12:06;16.50;99.90
35563;DHT22;21665;40.108;18.302;2023-04-24T05:14:38;16.50;99.90
35563;DHT22;21665;40.108;18.302;2023-04-24T05:17:06;16.40;99.90
35563;DHT22;21665;40.108;18.302;2023-04-24T05:19:32;16.40;99.90
35563;DHT22;21665;40.108;18.302;2023-04-24T05:22:02;16.40;99.90
35563;DHT22;21665;40.108;18.302;2023-04-24T05:24:33;16.60;99.90
35563;DHT22;21665;40.108;18.302;2023-04-24T05:27:18;16.80;99.90
35563;DHT22;21665;40.108;18.302;2023-04-24T05:29:45;17.40;99.90
35563;DHT22;21665;40.108;18.302;2023-04-24T05:32:11;18.70;99.90
35563;DHT22;21665;40.108;18.302;2023-04-24T05:34:38;19.50;99.90
35563;DHT22;21665;40.108;18.302;2023-04-24T05:37:05;20.60;99.90
35563;DHT22;21665;40.108;18.302;2023-04-24T05:39:34;21.00;99.90
35563;DHT22;21665;40.108;18.302;2023-04-24T05:42:02;21.30;99.90
35563;DHT22;21665;40.108;18.302;2023-04-24T05:44:29;21.90;99.90
35563;DHT22;21665;40.108;18.302;2023-04-24T05:46:56;22.00;99.90
35563;DHT22;21665;40.108;18.302;2023-04-24T05:49:23;21.90;99.90
35563;DHT22;21665;40.108;18.302;2023-04-24T05:51:50;21.80;99.90
35563;DHT22;21665;40.108;18.302;2023-04-24T05:54:18;21.40;99.90
35563;DHT22;21665;40.108;18.302;2023-04-24T05:56:44;20.60;99.90
35563;DHT22;21665;40.108;18.302;2023-04-24T05:59:19;20.60;99.90
35563;DHT22;21665;40.108;18.302;2023-04-24T06:01:46;20.10;99.90
35563;DHT22;21665;40.108;18.302;2023-04-24T06:04:19;19.40;99.90
35563;DHT22;21665;40.108;18.302;2023-04-24T06:06:46;19.10;99.90
35563;DHT22;21665;40.108;18.302;2023-04-24T06:09:18;19.00;99.90
35563;DHT22;21665;40.108;18.302;2023-04-24T06:11:45;19.40;99.90
35563;DHT22;21665;40.108;18.302;2023-04-24T06:14:13;19.90;99.90
35563;DHT22;21665;40.108;18.302;2023-04-24T06:17:06;20.80;99.90
35563;DHT22;21665;40.108;18.302;2023-04-24T06:19:38;21.60;99.90
35563;DHT22;21665;40.108;18.302;2023-04-24T06:22:04;22.00;99.90
35563;DHT22;21665;40.108;18.302;2023-04-24T06:24:31;22.20;99.90
35563;DHT22;21665;40.108;18.302;2023-04-24T06:26:58;22.60;99.90
35563;DHT22;21665;40.108;18.302;2023-04-24T06:29:26;22.60;99.90
35563;DHT22;21665;40.108;18.302;2023-04-24T06:31:53;22.20;99.90
35563;DHT22;21665;40.108;18.302;2023-04-24T06:34:20;22.80;99.90
35563;DHT22;21665;40.108;18.302;2023-04-24T06:36:47;22.50;99.90
35563;DHT22;21665;40.108;18.302;2023-04-24T06:39:14;22.40;99.90
35563;DHT22;21665;40.108;18.302;2023-04-24T06:41:40;22.80;99.90
35563;DHT22;21665;40.108;18.302;2023-04-24T06:44:09;22.90;99.90
35563;DHT22;21665;40.108;18.302;2023-04-24T06:46:36;22.30;99.90
35563;DHT22;21665;40.108;18.302;2023-04-24T06:49:02;21.90;99.90
35563;DHT22;21665;40.108;18.302;2023-04-24T06:51:29;21.40;99.90
35563;DHT22;21665;40.108;18.302;2023-04-24T06:53:56;21.00;99.90
35563;DHT22;21665;40.108;18.302;2023-04-24T06:56:23;21.30;99.90
35563;DHT22;21665;40.108;18.302;2023-04-24T06:58:50;21.70;99.90
35563;DHT22;21665;40.108;18.302;2023-04-24T07:01:17;22.10;99.90
35563;DHT22;21665;40.108;18.302;2023-04-24T07:03:43;22.70;99.90
35563;DHT22;21665;40.108;18.302;2023-04-24T07:06:10;22.60;99.90
35563;DHT22;21665;40.108;18.302;2023-04-24T07:08:37;22.70;99.90
35563;DHT22;21665;40.108;18.302;2023-04-24T07:11:04;23.00;99.90
35563;DHT22;21665;40.108;18.302;2023-04-24T07:13:31;22.60;99.90
35563;DHT22;21665;40.108;18.302;2023-04-24T07:16:01;21.70;99.90
35563;DHT22;21665;40.108;18.302;2023-04-24T07:18:28;21.90;99.90
35563;DHT22;21665;40.108;18.302;2023-04-24T07:20:54;21.70;99.90
35563;DHT22;21665;40.108;18.302;2023-04-24T07:23:21;22.10;99.90
35563;DHT22;21665;40.108;18.302;2023-04-24T07:25:47;22.40;99.90
35563;DHT22;21665;40.108;18.302;2023-04-24T07:28:14;23.20;99.90
35563;DHT22;21665;40.108;18.302;2023-04-24T07:30:40;22.10;99.90
35563;DHT22;21665;40.108;18.302;2023-04-24T07:33:08;21.30;99.90
35563;DHT22;21665;40.108;18.302;2023-04-24T07:35:37;21.40;99.90
35563;DHT22;21665;40.108;18.302;2023-04-24T18:33:07;16.80;99.90
35563;DHT22;21665;40.108;18.302;2023-04-24T18:35:34;16.80;99.90
35563;DHT22;21665;40.108;18.302;2023-04-24T18:38:01;16.80;99.90
35563;DHT22;21665;40.108;18.302;2023-04-24T18:40:27;16.80;99.90
35563;DHT22;21665;40.108;18.302;2023-04-24T18:42:55;16.70;99.90
35563;DHT22;21665;40.108;18.302;2023-04-24T18:45:21;16.70;99.90
35563;DHT22;21665;40.108;18.302;2023-04-24T18:47:48;16.70;99.90
35563;DHT22;21665;40.108;18.302;2023-04-24T18:50:15;16.60;99.90
35563;DHT22;21665;40.108;18.302;2023-04-24T18:52:41;16.60;99.90
35563;DHT22;21665;40.108;18.302;2023-04-24T18:55:08;16.60;99.90
35563;DHT22;21665;40.108;18.302;2023-04-24T18:57:35;16.50;99.90
35563;DHT22;21665;40.108;18.302;2023-04-24T19:00:02;16.50;99.90
35563;DHT22;21665;40.108;18.302;2023-04-24T19:02:29;16.50;99.90
35563;DHT22;21665;40.108;18.302;2023-04-24T19:04:56;16.40;99.90
35563;DHT22;21665;40.108;18.302;2023-04-24T19:07:22;16.30;99.90
35563;DHT22;21665;40.108;18.302;2023-04-24T19:09:52;16.20;99.90
35563;DHT22;21665;40.108;18.302;2023-04-24T19:12:25;16.10;99.90
35563;DHT22;21665;40.108;18.302;2023-04-24T19:14:52;16.10;99.90
35563;DHT22;21665;40.108;18.302;2023-04-24T19:17:21;16.10;99.90
35563;DHT22;21665;40.108;18.302;2023-04-24T19:19:50;16.10;99.90
35563;DHT22;21665;40.108;18.302;2023-04-24T19:22:18;16.20;99.90
35563;DHT22;21665;40.108;18.302;2023-04-24T19:24:45;16.20;99.90
35563;DHT22;21665;40.108;18.302;2023-04-24T19:27:12;16.20;99.90
35563;DHT22;21665;40.108;18.302;2023-04-24T19:29:39;16.20;99.90
35563;DHT22;21665;40.108;18.302;2023-04-24T19:32:07;16.20;99.90
35563;DHT22;21665;40.108;18.302;2023-04-24T19:34:34;16.20;99.90
35563;DHT22;21665;40.108;18.302;2023-04-24T19:37:00;16.20;99.90
35563;DHT22;21665;40.108;18.302;2023-04-24T19:39:27;16.20;99.90
35563;DHT22;21665;40.108;18.302;2023-04-24T19:41:54;16.10;99.90
35563;DHT22;21665;40.108;18.302;2023-04-24T19:44:22;16.20;99.90
35563;DHT22;21665;40.108;18.302;2023-04-24T19:46:51;16.20;99.90
35563;DHT22;21665;40.108;18.302;2023-04-24T19:49:17;16.20;99.90
35563;DHT22;21665;40.108;18.302;2023-04-24T19:51:44;16.20;99.90
35563;DHT22;21665;40.108;18.302;2023-04-24T19:54:10;16.20;99.90
35563;DHT22;21665;40.108;18.302;2023-04-24T19:56:37;16.30;99.90
35563;DHT22;21665;40.108;18.302;2023-04-24T19:59:04;16.30;99.90
35563;DHT22;21665;40.108;18.302;2023-04-24T20:01:31;16.30;99.90
35563;DHT22;21665;40.108;18.302;2023-04-24T20:03:58;16.20;99.90
35563;DHT22;21665;40.108;18.302;2023-04-24T20:06:24;16.20;99.90
35563;DHT22;21665;40.108;18.302;2023-04-24T20:08:51;16.20;99.90
35563;DHT22;21665;40.108;18.302;2023-04-24T20:11:18;16.20;99.90
35563;DHT22;21665;40.108;18.302;2023-04-24T20:13:45;16.30;99.90
35563;DHT22;21665;40.108;18.302;2023-04-24T20:16:11;16.20;99.90
35563;DHT22;21665;40.108;18.302;2023-04-24T20:18:38;16.30;99.90
35563;DHT22;21665;40.108;18.302;2023-04-24T20:21:04;16.40;99.90
35563;DHT22;21665;40.108;18.302;2023-04-24T20:23:31;16.40;99.90
35563;DHT22;21665;40.108;18.302;2023-04-24T20:25:58;16.40;99.90
35563;DHT22;21665;40.108;18.302;2023-04-24T20:28:31;16.40;99.90
35563;DHT22;21665;40.108;18.302;2023-04-24T20:30:58;16.40;99.90
35563;DHT22;21665;40.108;18.302;2023-04-24T20:33:25;16.30;99.90
35563;DHT22;21665;40.108;18.302;2023-04-24T20:35:53;16.30;99.90
35563;DHT22;21665;40.108;18.302;2023-04-24T20:38:19;16.20;99.90
35563;DHT22;21665;40.108;18.302;2023-04-24T20:40:50;16.20;99.90
35563;DHT22;21665;40.108;18.302;2023-04-24T20:43:17;16.20;99.90
35563;DHT22;21665;40.108;18.302;2023-04-24T20:45:43;16.20;99.90
35563;DHT22;21665;40.108;18.302;2023-04-24T20:48:09;16.10;99.90
35563;DHT22;21665;40.108;18.302;2023-04-24T20:50:40;16.10;99.90
35563;DHT22;21665;40.108;18.302;2023-04-24T20:53:07;16.00;99.90
35563;DHT22;21665;40.108;18.302;2023-04-24T20:55:37;16.00;99.90
35563;DHT22;21665;40.108;18.302;2023-04-24T20:58:03;15.90;99.90
35563;DHT22;21665;40.108;18.302;2023-04-24T21:00:32;15.90;99.90
35563;DHT22;21665;40.108;18.302;2023-04-24T21:02:59;15.80;99.90
35563;DHT22;21665;40.108;18.302;2023-04-24T21:05:26;15.80;99.90
35563;DHT22;21665;40.108;18.302;2023-04-24T21:07:52;15.70;99.90
35563;DHT22;21665;40.108;18.302;2023-04-24T21:10:22;15.70;99.90
35563;DHT22;21665;40.108;18.302;2023-04-24T21:12:50;15.70;99.90
35563;DHT22;21665;40.108;18.302;2023-04-24T21:15:16;15.70;99.90
35563;DHT22;21665;40.108;18.302;2023-04-24T21:17:43;15.70;99.90
35563;DHT22;21665;40.108;18.302;2023-04-24T21:20:10;15.70;99.90
35563;DHT22;21665;40.108;18.302;2023-04-24T21:22:37;15.70;99.90
35563;DHT22;21665;40.108;18.302;2023-04-24T21:25:03;15.70;99.90
35563;DHT22;21665;40.108;18.302;2023-04-24T21:27:30;15.70;99.90
35563;DHT22;21665;40.108;18.302;2023-04-24T21:29:56;15.80;99.90
35563;DHT22;21665;40.108;18.302;2023-04-24T21:32:23;15.80;99.90
35563;DHT22;21665;40.108;18.302;2023-04-24T21:34:49;15.80;99.90
35563;DHT22;21665;40.108;18.302;2023-04-24T21:37:16;15.80;99.90
35563;DHT22;21665;40.108;18.302;2023-04-24T21:39:42;15.80;99.90
35563;DHT22;21665;40.108;18.302;2023-04-24T21:42:09;15.80;99.90
35563;DHT22;21665;40.108;18.302;2023-04-24T21:44:35;15.70;99.90
35563;DHT22;21665;40.108;18.302;2023-04-24T21:47:01;15.70;99.90
35563;DHT22;21665;40.108;18.302;2023-04-24T21:49:28;15.70;99.90
35563;DHT22;21665;40.108;18.302;2023-04-24T21:51:54;15.60;99.90
35563;DHT22;21665;40.108;18.302;2023-04-24T21:54:21;15.60;99.90
35563;DHT22;21665;40.108;18.302;2023-04-24T21:56:47;15.60;99.90
35563;DHT22;21665;40.108;18.302;2023-04-24T21:59:13;15.60;99.90
35563;DHT22;21665;40.108;18.302;2023-04-24T22:01:40;15.50;99.90
35563;DHT22;21665;40.108;18.302;2023-04-24T22:04:06;15.40;99.90
35563;DHT22;21665;40.108;18.302;2023-04-24T22:06:33;15.30;99.90
35563;DHT22;21665;40.108;18.302;2023-04-24T22:08:59;15.20;99.90
35563;DHT22;21665;40.108;18.302;2023-04-24T22:11:26;15.10;99.90
35563;DHT22;21665;40.108;18.302;2023-04-24T22:13:53;15.10;99.90
35563;DHT22;21665;40.108;18.302;2023-04-24T22:16:22;15.20;99.90
35563;DHT22;21665;40.108;18.302;2023-04-24T22:18:54;15.20;99.90
35563;DHT22;21665;40.108;18.302;2023-04-24T23:17:49;14.70;99.90
35563;DHT22;21665;40.108;18.302;2023-04-24T23:20:15;14.70;99.90
35563;DHT22;21665;40.108;18.302;2023-04-24T23:22:45;14.70;99.90
35563;DHT22;21665;40.108;18.302;2023-04-24T23:25:11;14.60;99.90
35563;DHT22;21665;40.108;18.302;2023-04-24T23:27:37;14.60;99.90
35563;DHT22;21665;40.108;18.302;2023-04-24T23:30:04;14.70;99.90
35563;DHT22;21665;40.108;18.302;2023-04-24T23:32:32;14.70;99.90
35563;DHT22;21665;40.108;18.302;2023-04-24T23:34:58;14.60;99.90
35563;DHT22;21665;40.108;18.302;2023-04-24T23:37:24;14.60;99.90
35563;DHT22;21665;40.108;18.302;2023-04-24T23:39:51;14.70;99.90
35563;DHT22;21665;40.108;18.302;2023-04-24T23:42:18;14.70;99.90
35563;DHT22;21665;40.108;18.302;2023-04-24T23:44:44;14.70;99.90
35563;DHT22;21665;40.108;18.302;2023-04-24T23:47:11;14.70;99.90
35563;DHT22;21665;40.108;18.302;2023-04-24T23:49:37;14.70;99.90
35563;DHT22;21665;40.108;18.302;2023-04-24T23:52:04;14.70;99.90
35563;DHT22;21665;40.108;18.302;2023-04-24T23:54:33;14.70;99.90
35563;DHT22;21665;40.108;18.302;2023-04-24T23:57:00;14.80;99.90
35563;DHT22;21665;40.108;18.302;2023-04-24T23:59:27;14.80;99.90
